Time;durP1;ratioP1;P1;durP2;ratioP2;P2;SDS_P1;SDS_P2;PMS_P1;PMS_P2;Temp;Humidity;BMP_temperature;BMP_pressure;BME280_temperature;BME280_humidity;BME280_pressure;Samples;Min_cycle;Max_cycle;Signal;HPM_P1;HPM_P2
2021/07/25 00:00:06;;;;;;;46.97;34.40;;;18.70;99.90;;;;;;5070574;28;20466;-67
2021/07/25 00:02:33;;;;;;;49.60;37.57;;;18.70;99.90;;;;;;5070925;28;20931;-67
2021/07/25 00:05:01;;;;;;;52.37;36.87;;;18.70;99.90;;;;;;5074215;28;20447;-67
2021/07/25 00:07:27;;;;;;;47.77;39.67;;;18.70;99.90;;;;;;5062114;28;20468;-68
2021/07/25 00:09:55;;;;;;;46.90;38.20;;;18.70;99.90;;;;;;5054094;28;20450;-68
2021/07/25 00:12:22;;;;;;;46.43;37.77;;;18.70;99.90;;;;;;5054008;28;20483;-68
2021/07/25 00:14:49;;;;;;;52.80;38.80;;;18.70;99.90;;;;;;5054139;28;20452;-68
2021/07/25 00:17:15;;;;;;;51.10;37.37;;;18.70;99.90;;;;;;5063695;28;20475;-68
2021/07/25 00:19:43;;;;;;;50.93;38.20;;;18.70;99.90;;;;;;5074065;28;20450;-68
2021/07/25 00:22:09;;;;;;;47.30;37.10;;;18.70;99.90;;;;;;5073772;28;20450;-68
2021/07/25 00:24:38;;;;;;;47.67;37.40;;;18.70;99.90;;;;;;5073932;28;20448;-68
2021/07/25 00:27:07;;;;;;;47.10;36.63;;;18.70;99.90;;;;;;5065620;28;20479;-68
2021/07/25 00:29:33;;;;;;;44.20;36.53;;;18.70;99.90;;;;;;5054014;28;20444;-68
2021/07/25 00:32:01;;;;;;;43.97;34.43;;;18.70;99.90;;;;;;5053578;28;20476;-68
2021/07/25 00:34:29;;;;;;;58.80;37.60;;;18.70;99.90;;;;;;5053777;28;20447;-68
2021/07/25 00:36:56;;;;;;;49.70;34.80;;;18.70;99.90;;;;;;5059955;28;20985;-68
2021/07/25 00:39:23;;;;;;;50.07;35.23;;;18.60;99.90;;;;;;5073683;28;20451;-68
2021/07/25 00:41:50;;;;;;;43.20;35.23;;;18.60;99.90;;;;;;5073474;28;20444;-68
2021/07/25 00:44:18;;;;;;;49.17;35.30;;;18.60;99.90;;;;;;5073537;28;20439;-68
2021/07/25 00:46:46;;;;;;;46.73;35.27;;;18.60;99.90;;;;;;5068283;28;20472;-68
2021/07/25 00:49:14;;;;;;;50.20;37.10;;;18.60;99.90;;;;;;5053442;28;20448;-68
2021/07/25 00:51:41;;;;;;;39.57;33.40;;;18.60;99.90;;;;;;5053254;28;20468;-68
2021/07/25 00:54:08;;;;;;;55.20;37.77;;;18.60;99.90;;;;;;5053399;28;20440;-68
2021/07/25 00:56:36;;;;;;;47.47;35.07;;;18.50;99.90;;;;;;5053261;28;20468;-68
2021/07/25 00:59:05;;;;;;;48.10;34.20;;;18.50;99.90;;;;;;5053338;28;20448;-68
2021/07/25 01:01:33;;;;;;;55.77;37.30;;;18.50;99.90;;;;;;5053134;28;20444;-68
2021/07/25 01:04:16;;;;;;;53.20;36.83;;;18.50;99.90;;;;;;5053113;28;20449;-68
2021/07/25 01:06:56;;;;;;;55.00;35.50;;;18.40;99.90;;;;;;5053471;28;20467;-68
2021/07/25 01:09:30;;;;;;;49.30;37.87;;;18.30;99.90;;;;;;5053621;28;20447;-68
2021/07/25 01:11:59;;;;;;;51.07;37.70;;;18.30;99.90;;;;;;5052910;28;20555;-68
2021/07/25 01:14:29;;;;;;;47.43;36.33;;;18.30;99.90;;;;;;5051717;28;20498;-68
2021/07/25 01:17:31;;;;;;;50.83;40.10;;;18.30;99.90;;;;;;5052142;28;20997;-68
2021/07/25 01:19:59;;;;;;;54.90;37.07;;;18.30;99.90;;;;;;5052640;28;20950;-68
2021/07/25 01:22:28;;;;;;;48.07;36.37;;;18.30;99.90;;;;;;5052392;28;20447;-68
2021/07/25 01:24:55;;;;;;;57.60;37.30;;;18.20;99.90;;;;;;5052835;28;20849;-68
2021/07/25 01:27:28;;;;;;;59.73;39.97;;;18.20;99.90;;;;;;5052421;28;21157;-67
2021/07/25 01:29:57;;;;;;;60.60;40.10;;;18.20;99.90;;;;;;5052762;28;20467;-68
2021/07/25 01:32:25;;;;;;;50.87;38.40;;;18.30;99.90;;;;;;5052530;28;20534;-68
2021/07/25 01:34:54;;;;;;;51.20;37.37;;;18.30;99.90;;;;;;5052641;28;20437;-68
2021/07/25 01:37:23;;;;;;;51.20;37.53;;;18.40;99.90;;;;;;5052141;28;20483;-68
2021/07/25 01:39:49;;;;;;;75.10;43.13;;;18.40;99.90;;;;;;5052524;28;20447;-67
2021/07/25 01:42:29;;;;;;;50.70;38.07;;;18.50;99.90;;;;;;5052312;28;20436;-68
2021/07/25 01:44:56;;;;;;;49.97;37.43;;;18.50;99.90;;;;;;5051958;28;20455;-68
2021/07/25 01:47:23;;;;;;;53.87;38.10;;;18.50;99.90;;;;;;5052212;28;20975;-68
2021/07/25 01:49:49;;;;;;;55.63;37.47;;;18.50;99.90;;;;;;5052562;28;20444;-68
2021/07/25 01:52:16;;;;;;;45.40;35.97;;;18.60;99.90;;;;;;5052041;28;20487;-67
2021/07/25 01:54:44;;;;;;;46.30;36.37;;;18.60;99.90;;;;;;5051915;28;20443;-67
2021/07/25 01:57:11;;;;;;;50.80;35.63;;;18.60;99.90;;;;;;5051969;28;21144;-67
2021/07/25 01:59:38;;;;;;;47.57;36.47;;;18.70;99.90;;;;;;5052113;28;20531;-67
2021/07/25 02:02:04;;;;;;;45.37;35.50;;;18.70;99.90;;;;;;5051906;28;20447;-68
2021/07/25 02:04:31;;;;;;;45.10;34.80;;;18.70;99.90;;;;;;5051763;28;20451;-67
2021/07/25 02:06:59;;;;;;;47.93;37.37;;;18.80;99.90;;;;;;5051920;28;20464;-67
2021/07/25 02:09:25;;;;;;;41.30;33.10;;;18.70;99.90;;;;;;5051935;28;21009;-67
2021/07/25 02:11:53;;;;;;;44.77;34.60;;;18.80;99.90;;;;;;5051607;28;20483;-67
2021/07/25 02:14:20;;;;;;;39.50;31.87;;;18.80;99.90;;;;;;5051466;28;20502;-68
2021/07/25 02:16:47;;;;;;;48.73;35.57;;;18.70;99.90;;;;;;5051739;28;20479;-68
2021/07/25 02:19:13;;;;;;;43.03;32.77;;;18.70;99.90;;;;;;5051826;28;20448;-67
2021/07/25 02:21:40;;;;;;;40.30;32.43;;;18.70;99.90;;;;;;5051467;28;20445;-67
2021/07/25 02:24:07;;;;;;;45.67;33.07;;;18.70;99.90;;;;;;5051499;28;20444;-67
2021/07/25 02:26:34;;;;;;;44.27;35.17;;;18.60;99.90;;;;;;5051304;28;21033;-67
2021/07/25 02:29:02;;;;;;;43.83;33.47;;;18.60;99.90;;;;;;5051639;28;20471;-67
2021/07/25 02:31:29;;;;;;;43.30;34.20;;;18.50;99.90;;;;;;5051324;28;20444;-67
2021/07/25 02:33:55;;;;;;;38.10;32.73;;;18.50;99.90;;;;;;5051255;28;20940;-67
2021/07/25 02:36:22;;;;;;;52.20;32.80;;;18.40;99.90;;;;;;5051298;28;20997;-67
2021/07/25 02:38:48;;;;;;;37.27;30.50;;;18.40;99.90;;;;;;5051466;28;20966;-68
2021/07/25 02:41:15;;;;;;;39.00;31.77;;;18.30;99.90;;;;;;5051234;28;20448;-67
2021/07/25 02:43:42;;;;;;;37.27;31.30;;;18.30;99.90;;;;;;5051067;28;20447;-67
2021/07/25 02:46:10;;;;;;;39.40;30.23;;;18.20;99.90;;;;;;5124705;22;20493;-65
2021/07/25 02:48:36;;;;;;;46.03;32.67;;;18.10;99.90;;;;;;5114987;27;20445;-65
2021/07/25 02:51:03;;;;;;;44.07;32.90;;;18.00;99.90;;;;;;5111917;28;20442;-64
2021/07/25 02:53:30;;;;;;;48.37;32.80;;;18.00;99.90;;;;;;5111944;28;20969;-65
2021/07/25 02:55:56;;;;;;;43.87;33.17;;;17.90;99.90;;;;;;5132424;27;20467;-65
2021/07/25 02:58:23;;;;;;;51.57;33.97;;;17.90;99.90;;;;;;5132440;27;20441;-65
2021/07/25 03:00:50;;;;;;;50.60;34.97;;;17.80;99.90;;;;;;5132035;28;20536;-64
2021/07/25 03:03:18;;;;;;;50.67;33.60;;;17.70;99.90;;;;;;5132225;28;20432;-66
2021/07/25 03:05:45;;;;;;;48.87;32.27;;;17.70;99.90;;;;;;5112816;27;20469;-66
2021/07/25 03:08:11;;;;;;;60.50;38.80;;;17.70;99.90;;;;;;5111799;28;20437;-66
2021/07/25 03:10:39;;;;;;;47.80;34.13;;;17.60;99.90;;;;;;5111854;28;20935;-65
2021/07/25 03:13:06;;;;;;;54.73;35.93;;;17.60;99.90;;;;;;5111508;28;20477;-65
2021/07/25 03:15:33;;;;;;;53.93;38.70;;;17.60;99.90;;;;;;5128569;28;20483;-65
2021/07/25 03:17:59;;;;;;;55.90;37.80;;;17.60;99.90;;;;;;5132372;28;20433;-65
2021/07/25 03:20:27;;;;;;;62.37;41.23;;;17.60;99.90;;;;;;5132275;28;20444;-65
2021/07/25 03:22:54;;;;;;;51.17;34.67;;;17.60;99.90;;;;;;5132166;28;20994;-65
2021/07/25 03:25:21;;;;;;;53.80;38.50;;;17.60;99.90;;;;;;5116732;28;20654;-65
2021/07/25 03:27:47;;;;;;;46.07;33.83;;;17.60;99.90;;;;;;5111633;28;20437;-65
2021/07/25 03:30:14;;;;;;;55.10;36.40;;;17.60;99.90;;;;;;5111532;28;20448;-65
2021/07/25 03:32:41;;;;;;;58.40;35.97;;;17.60;99.90;;;;;;5111296;28;20476;-65
2021/07/25 03:35:09;;;;;;;57.37;36.80;;;17.60;99.90;;;;;;5124473;28;20465;-65
2021/07/25 03:37:40;;;;;;;56.73;36.63;;;17.60;99.90;;;;;;5132711;27;20463;-65
2021/07/25 03:40:07;;;;;;;59.67;35.70;;;17.50;99.90;;;;;;5136092;27;20448;-65
2021/07/25 03:42:34;;;;;;;53.03;33.90;;;17.50;99.90;;;;;;5128862;27;20456;-65
2021/07/25 03:45:01;;;;;;;55.50;36.47;;;17.50;99.90;;;;;;5115171;28;20476;-66
2021/07/25 03:47:28;;;;;;;54.80;38.07;;;17.50;99.90;;;;;;5115539;28;20444;-65
2021/07/25 03:49:54;;;;;;;53.83;35.40;;;17.50;99.90;;;;;;5115283;28;20965;-65
2021/07/25 03:52:22;;;;;;;51.40;33.20;;;17.50;99.90;;;;;;5119036;27;20846;-65
2021/07/25 03:54:50;;;;;;;58.63;35.80;;;17.50;99.90;;;;;;5135778;27;20494;-65
2021/07/25 03:57:16;;;;;;;56.83;36.67;;;17.50;99.90;;;;;;5135637;27;20432;-65
2021/07/25 03:59:43;;;;;;;55.27;38.37;;;17.50;99.90;;;;;;5135634;27;20451;-65
2021/07/25 04:02:10;;;;;;;54.33;34.43;;;17.50;99.90;;;;;;5118273;27;20441;-65
2021/07/25 04:04:37;;;;;;;48.80;33.63;;;17.50;99.90;;;;;;5114819;27;20504;-65
2021/07/25 04:07:04;;;;;;;52.50;32.07;;;17.50;99.90;;;;;;5115093;28;20456;-65
2021/07/25 04:09:31;;;;;;;48.73;34.30;;;17.50;99.90;;;;;;5114972;28;20804;-65
2021/07/25 04:11:58;;;;;;;54.17;33.73;;;17.50;99.90;;;;;;5129179;27;20819;-65
2021/07/25 04:14:25;;;;;;;46.90;33.03;;;17.50;99.90;;;;;;5134916;27;20471;-66
2021/07/25 04:16:52;;;;;;;53.40;36.37;;;17.50;99.90;;;;;;5135484;27;20441;-65
2021/07/25 04:19:19;;;;;;;46.20;32.47;;;17.50;99.90;;;;;;5135342;27;20429;-65
2021/07/25 04:21:45;;;;;;;45.83;31.67;;;17.50;99.90;;;;;;5122052;27;20442;-65
2021/07/25 04:24:12;;;;;;;48.30;33.50;;;17.50;99.90;;;;;;5114717;28;20439;-66
2021/07/25 04:26:39;;;;;;;51.40;35.70;;;17.50;99.90;;;;;;5114461;28;20473;-66
2021/07/25 04:29:08;;;;;;;47.90;31.47;;;17.50;99.90;;;;;;5114655;28;20438;-65
2021/07/25 04:31:36;;;;;;;42.90;31.70;;;17.60;99.90;;;;;;5125102;27;20459;-65
2021/07/25 04:34:03;;;;;;;48.40;33.30;;;17.60;99.90;;;;;;5134566;27;20476;-66
2021/07/25 04:36:30;;;;;;;49.67;30.90;;;17.60;99.90;;;;;;5134877;27;20477;-65
2021/07/25 04:38:58;;;;;;;45.70;31.83;;;17.60;99.90;;;;;;5135119;27;20477;-65
2021/07/25 04:41:26;;;;;;;45.63;29.57;;;17.70;99.90;;;;;;5124885;27;20781;-66
2021/07/25 04:44:02;;;;;;;35.43;29.00;;;17.70;99.90;;;;;;5114184;27;20445;-65
2021/07/25 04:46:30;;;;;;;50.83;30.67;;;17.70;99.90;;;;;;5114125;28;20504;-65
2021/07/25 04:49:05;;;;;;;39.17;28.00;;;17.80;99.90;;;;;;5113903;28;20446;-66
2021/07/25 04:51:32;;;;;;;37.70;27.20;;;17.80;99.90;;;;;;5123833;27;20444;-65
2021/07/25 04:54:06;;;;;;;36.00;27.70;;;17.90;99.90;;;;;;5134545;27;20476;-65
2021/07/25 04:56:40;;;;;;;34.40;26.13;;;17.90;99.90;;;;;;5134611;27;20499;-65
2021/07/25 04:59:13;;;;;;;29.73;25.00;;;17.90;99.90;;;;;;5134596;27;20451;-65
2021/07/25 05:01:46;;;;;;;33.83;25.47;;;18.00;99.90;;;;;;5122987;27;20476;-65
2021/07/25 05:04:13;;;;;;;28.60;24.77;;;18.00;99.90;;;;;;5113936;28;20796;-65
2021/07/25 05:06:40;;;;;;;29.03;25.67;;;18.00;99.90;;;;;;5113818;28;20472;-65
2021/07/25 05:09:09;;;;;;;32.10;24.83;;;18.10;99.90;;;;;;5117063;27;20510;-65
2021/07/25 05:11:45;;;;;;;31.40;24.07;;;18.20;99.90;;;;;;5134033;27;20500;-66
2021/07/25 05:14:22;;;;;;;27.63;24.10;;;18.20;99.90;;;;;;5134241;27;20475;-65
2021/07/25 05:16:59;;;;;;;24.53;21.77;;;18.30;99.90;;;;;;5134368;27;20437;-65
2021/07/25 05:19:29;;;;;;;27.77;24.03;;;18.30;99.90;;;;;;5128150;27;20437;-65
2021/07/25 05:22:05;;;;;;;27.73;23.43;;;18.40;99.90;;;;;;5113354;28;20457;-65
2021/07/25 05:24:37;;;;;;;24.53;19.77;;;18.40;99.90;;;;;;5113505;28;20439;-66
2021/07/25 05:27:04;;;;;;;22.37;20.17;;;18.50;99.90;;;;;;5113493;28;20440;-65
2021/07/25 05:29:34;;;;;;;24.57;22.00;;;18.50;99.90;;;;;;5119640;27;20440;-66
2021/07/25 05:32:02;;;;;;;25.30;22.13;;;18.50;99.90;;;;;;5133643;27;20943;-65
2021/07/25 05:34:28;;;;;;;25.20;20.97;;;18.60;99.90;;;;;;5133636;27;20476;-66
2021/07/25 05:36:55;;;;;;;22.27;19.97;;;18.70;99.90;;;;;;5133802;27;20977;-65
2021/07/25 05:39:21;;;;;;;23.60;21.10;;;18.70;99.90;;;;;;5128622;27;20453;-65
2021/07/25 05:41:48;;;;;;;20.97;18.90;;;18.80;99.90;;;;;;5112660;27;20449;-65
2021/07/25 05:44:15;;;;;;;21.57;18.70;;;18.90;99.90;;;;;;5113116;28;20443;-65
2021/07/25 05:46:41;;;;;;;21.90;19.63;;;18.90;99.90;;;;;;5112820;28;20450;-65
2021/07/25 05:49:09;;;;;;;28.07;23.43;;;19.00;99.90;;;;;;5115285;27;20438;-65
2021/07/25 05:51:36;;;;;;;19.30;17.30;;;19.00;99.90;;;;;;5133335;27;20891;-65
2021/07/25 05:54:03;;;;;;;20.67;18.33;;;19.10;99.90;;;;;;5133417;27;20476;-66
2021/07/25 05:56:30;;;;;;;20.67;18.57;;;19.20;99.90;;;;;;5133234;27;20464;-66
2021/07/25 05:58:57;;;;;;;18.37;15.50;;;19.20;99.90;;;;;;5132195;27;20447;-65
2021/07/25 06:01:23;;;;;;;17.93;16.23;;;19.30;99.90;;;;;;5112056;28;20450;-65
2021/07/25 06:03:50;;;;;;;17.70;16.00;;;19.40;99.90;;;;;;5112783;28;20441;-65
2021/07/25 06:06:18;;;;;;;17.73;16.00;;;19.60;99.90;;;;;;5112669;28;20905;-66
2021/07/25 06:08:45;;;;;;;17.17;15.40;;;19.60;99.90;;;;;;5125609;27;20781;-65
2021/07/25 06:11:11;;;;;;;16.23;14.73;;;19.70;99.90;;;;;;5132682;27;21188;-65
2021/07/25 06:13:38;;;;;;;18.30;16.40;;;19.70;99.90;;;;;;5132966;27;20475;-65
2021/07/25 06:16:05;;;;;;;18.60;16.77;;;19.80;99.90;;;;;;5132994;27;20465;-65
2021/07/25 06:18:31;;;;;;;19.90;17.40;;;19.90;99.90;;;;;;5121709;27;20446;-66
2021/07/25 06:20:58;;;;;;;16.97;15.17;;;19.90;99.90;;;;;;5112229;28;20970;-65
2021/07/25 06:23:26;;;;;;;17.10;15.33;;;20.10;99.90;;;;;;5112256;28;20438;-66
2021/07/25 06:25:53;;;;;;;18.97;17.27;;;20.10;99.90;;;;;;5112373;28;20988;-65
2021/07/25 06:28:19;;;;;;;16.07;14.57;;;20.20;99.90;;;;;;5121217;27;20803;-66
2021/07/25 06:30:46;;;;;;;18.90;17.10;;;20.20;99.90;;;;;;5132958;27;20444;-66
2021/07/25 06:33:13;;;;;;;16.83;15.43;;;20.30;99.90;;;;;;5132480;27;20476;-65
2021/07/25 06:35:41;;;;;;;17.13;15.73;;;20.30;99.90;;;;;;5132683;27;20457;-65
2021/07/25 06:38:09;;;;;;;18.80;17.30;;;20.40;99.90;;;;;;5125269;27;20444;-65
2021/07/25 06:40:39;;;;;;;17.87;16.47;;;20.50;99.90;;;;;;5112032;28;20523;-66
2021/07/25 06:43:06;;;;;;;18.13;16.73;;;20.60;99.90;;;;;;5111863;28;20445;-66
2021/07/25 06:45:34;;;;;;;19.00;17.50;;;20.70;99.90;;;;;;5111886;28;20496;-66
2021/07/25 06:48:01;;;;;;;18.83;17.10;;;20.70;99.90;;;;;;5117972;27;20437;-66
2021/07/25 06:50:29;;;;;;;20.40;18.63;;;20.80;99.90;;;;;;5132572;27;20807;-66
2021/07/25 06:52:57;;;;;;;19.93;18.33;;;20.90;99.90;;;;;;5132150;27;20436;-65
2021/07/25 06:55:26;;;;;;;19.87;18.00;;;20.90;99.90;;;;;;5132322;27;20464;-65
2021/07/25 06:57:54;;;;;;;19.23;17.80;;;21.00;99.90;;;;;;5127519;27;20781;-65
2021/07/25 07:00:21;;;;;;;19.10;17.60;;;21.10;99.90;;;;;;5111848;28;20437;-66
2021/07/25 07:02:49;;;;;;;19.40;18.00;;;21.20;99.90;;;;;;5111588;28;20437;-65
2021/07/25 07:05:16;;;;;;;18.87;17.57;;;21.30;99.90;;;;;;5111765;28;20473;-65
2021/07/25 07:07:43;;;;;;;20.47;18.73;;;21.40;99.90;;;;;;5114566;28;20819;-65
2021/07/25 07:10:11;;;;;;;19.30;17.97;;;21.50;99.90;;;;;;5132383;28;20448;-66
2021/07/25 07:12:37;;;;;;;18.03;16.90;;;21.50;99.90;;;;;;5132951;27;20902;-65
2021/07/25 07:15:08;;;;;;;18.50;17.20;;;21.60;99.90;;;;;;5136513;27;20485;-65
2021/07/25 07:17:34;;;;;;;18.43;17.13;;;21.70;99.90;;;;;;5120271;27;20491;-66
2021/07/25 07:20:01;;;;;;;18.17;16.97;;;21.80;99.90;;;;;;5115894;28;20950;-65
2021/07/25 07:22:29;;;;;;;20.73;19.17;;;21.80;99.90;;;;;;5115954;28;20805;-65
2021/07/25 07:24:55;;;;;;;20.00;18.60;;;21.90;99.90;;;;;;5115813;28;20472;-66
2021/07/25 07:27:22;;;;;;;20.37;18.97;;;22.00;99.90;;;;;;5129421;27;20444;-66
2021/07/25 07:29:49;;;;;;;19.83;18.50;;;22.00;99.90;;;;;;5136295;27;20919;-65
2021/07/25 07:32:17;;;;;;;18.87;17.43;;;22.10;99.90;;;;;;5135952;27;20456;-65
2021/07/25 07:34:44;;;;;;;20.40;19.10;;;22.10;99.90;;;;;;5135992;27;20487;-66
2021/07/25 07:37:11;;;;;;;19.17;17.87;;;22.10;99.90;;;;;;5123839;27;20441;-65
2021/07/25 07:39:38;;;;;;;18.37;17.07;;;22.20;99.90;;;;;;5115451;28;20441;-65
2021/07/25 07:42:05;;;;;;;17.60;16.70;;;22.30;99.90;;;;;;5115302;28;20534;-65
2021/07/25 07:44:33;;;;;;;18.60;17.57;;;22.30;99.90;;;;;;5115195;28;20433;-65
2021/07/25 07:47:00;;;;;;;18.77;17.57;;;22.40;99.90;;;;;;5125509;27;20454;-66
2021/07/25 07:49:28;;;;;;;17.90;16.90;;;22.40;99.90;;;;;;5135523;27;20448;-65
2021/07/25 07:51:55;;;;;;;18.53;17.50;;;22.50;99.90;;;;;;5135631;27;20441;-65
2021/07/25 07:54:22;;;;;;;18.90;17.47;;;22.60;99.90;;;;;;5135501;27;20991;-65
2021/07/25 07:56:49;;;;;;;19.27;18.20;;;22.70;99.90;;;;;;5121347;27;20441;-65
2021/07/25 07:59:15;;;;;;;18.10;16.87;;;22.70;99.90;;;;;;5115031;28;20936;-66
2021/07/25 08:01:44;;;;;;;18.53;17.37;;;22.80;99.90;;;;;;5114840;28;20441;-65
2021/07/25 08:04:11;;;;;;;18.87;17.57;;;22.90;99.90;;;;;;5115029;28;20445;-66
2021/07/25 08:06:39;;;;;;;18.50;17.30;;;23.00;99.90;;;;;;5128412;27;20986;-65
2021/07/25 08:09:05;;;;;;;17.13;16.30;;;23.00;99.90;;;;;;5135017;27;20452;-66
2021/07/25 08:11:32;;;;;;;17.63;16.63;;;23.10;99.90;;;;;;5135224;27;20447;-65
2021/07/25 08:13:59;;;;;;;18.30;17.10;;;23.10;99.90;;;;;;5118243;27;20488;-65
2021/07/25 08:16:25;;;;;;;17.10;15.93;;;23.20;99.90;;;;;;5114713;28;20458;-65
2021/07/25 08:18:54;;;;;;;18.10;17.20;;;23.40;99.90;;;;;;5114730;28;20438;-66
2021/07/25 08:21:21;;;;;;;18.53;17.50;;;23.40;99.90;;;;;;5114585;28;20445;-66
2021/07/25 08:23:49;;;;;;;17.90;16.80;;;23.60;99.90;;;;;;5128553;27;20441;-66
2021/07/25 08:26:15;;;;;;;18.27;17.17;;;23.60;99.90;;;;;;5135076;27;20464;-65
2021/07/25 08:28:42;;;;;;;18.73;17.63;;;23.70;99.90;;;;;;5135261;27;20437;-65
2021/07/25 08:31:09;;;;;;;17.90;16.80;;;23.70;99.90;;;;;;5135078;27;20857;-66
2021/07/25 08:33:35;;;;;;;18.30;17.40;;;23.80;99.90;;;;;;5121985;27;20478;-67
2021/07/25 08:36:02;;;;;;;18.57;17.57;;;23.90;99.90;;;;;;5114319;28;20468;-66
2021/07/25 08:38:29;;;;;;;19.23;18.13;;;24.10;99.90;;;;;;5114581;28;20766;-66
2021/07/25 08:41:12;;;;;;;17.67;16.77;;;24.20;99.90;;;;;;5114229;28;20441;-65
2021/07/25 08:43:41;;;;;;;17.90;17.03;;;24.30;99.90;;;;;;5126951;27;20531;-65
2021/07/25 08:46:14;;;;;;;18.30;17.30;;;24.30;99.90;;;;;;5134582;22;20493;-67
2021/07/25 08:48:46;;;;;;;17.17;16.40;;;24.40;99.90;;;;;;5093749;28;20495;-67
2021/07/25 08:51:17;;;;;;;16.30;15.50;;;24.40;99.90;;;;;;5093652;28;20948;-67
2021/07/25 08:53:50;;;;;;;17.37;16.37;;;24.50;99.90;;;;;;5093615;28;20478;-67
2021/07/25 08:56:19;;;;;;;18.17;16.97;;;24.60;99.90;;;;;;5093524;28;20459;-67
2021/07/25 08:58:48;;;;;;;17.97;16.77;;;24.70;99.90;;;;;;5093391;28;20439;-68
2021/07/25 09:01:15;;;;;;;17.57;16.70;;;24.70;99.90;;;;;;5093326;28;20447;-67
2021/07/25 09:03:42;;;;;;;16.80;16.00;;;24.80;99.90;;;;;;5093028;28;20801;-68
2021/07/25 09:06:10;;;;;;;18.63;17.67;;;24.80;99.90;;;;;;5093324;28;20461;-67
2021/07/25 09:08:37;;;;;;;17.33;16.53;;;24.90;99.90;;;;;;5093371;28;20442;-67
2021/07/25 09:11:07;;;;;;;17.70;16.80;;;24.90;99.90;;;;;;5093057;28;20443;-67
2021/07/25 09:13:36;;;;;;;16.30;15.40;;;25.00;99.90;;;;;;5092824;28;20481;-67
2021/07/25 09:16:02;;;;;;;16.00;15.30;;;25.00;99.90;;;;;;5093023;28;20520;-68
2021/07/25 09:18:29;;;;;;;16.97;16.10;;;25.10;99.90;;;;;;5093212;28;20444;-67
2021/07/25 09:20:56;;;;;;;17.27;16.37;;;25.20;99.90;;;;;;5092957;28;20442;-67
2021/07/25 09:23:22;;;;;;;16.63;15.93;;;25.30;99.90;;;;;;5092698;28;20956;-67
2021/07/25 09:25:52;;;;;;;16.40;15.80;;;25.40;99.90;;;;;;5093008;28;20465;-67
2021/07/25 09:28:24;;;;;;;16.70;15.90;;;25.40;99.90;;;;;;5092866;28;20443;-67
2021/07/25 09:30:53;;;;;;;17.70;16.73;;;25.50;99.90;;;;;;5092928;28;20449;-67
2021/07/25 09:33:25;;;;;;;16.57;15.67;;;25.60;99.90;;;;;;5092542;28;20443;-67
2021/07/25 09:35:52;;;;;;;16.80;16.00;;;25.70;99.90;;;;;;5091715;28;20478;-67
2021/07/25 09:38:19;;;;;;;17.70;16.70;;;25.70;99.90;;;;;;5092766;28;20439;-67
2021/07/25 09:40:47;;;;;;;17.83;17.03;;;25.80;99.90;;;;;;5092747;28;20450;-66
2021/07/25 09:43:16;;;;;;;15.87;15.23;;;25.90;99.90;;;;;;5092252;28;20438;-67
2021/07/25 09:45:59;;;;;;;16.57;15.87;;;25.80;99.90;;;;;;5092422;28;20470;-67
2021/07/25 09:48:28;;;;;;;17.17;16.30;;;26.00;99.90;;;;;;5092617;28;20481;-67
2021/07/25 09:50:58;;;;;;;16.40;15.53;;;26.30;99.90;;;;;;5092339;28;20446;-67
2021/07/25 09:53:25;;;;;;;16.90;16.10;;;26.60;99.90;;;;;;5092022;28;20446;-68
2021/07/25 09:55:53;;;;;;;16.10;15.50;;;26.90;99.90;;;;;;5091991;28;20474;-68
2021/07/25 09:58:33;;;;;;;16.30;15.60;;;27.40;99.90;;;;;;5092441;28;20937;-67
2021/07/25 10:01:01;;;;;;;15.77;15.07;;;27.60;98.10;;;;;;5092213;28;20953;-67
2021/07/25 10:03:33;;;;;;;15.33;14.83;;;27.70;97.60;;;;;;5091923;28;20446;-68
2021/07/25 10:06:01;;;;;;;16.60;15.80;;;28.00;96.40;;;;;;5092067;28;20553;-67
2021/07/25 10:08:27;;;;;;;16.07;15.27;;;28.20;94.80;;;;;;5091810;28;20862;-67
2021/07/25 10:10:57;;;;;;;16.67;15.67;;;28.30;94.20;;;;;;5091970;28;20446;-67
2021/07/25 10:13:25;;;;;;;16.43;15.77;;;28.40;92.80;;;;;;5091778;28;20529;-68
2021/07/25 10:15:55;;;;;;;17.30;16.30;;;28.60;91.70;;;;;;5092009;28;21008;-67
2021/07/25 10:18:24;;;;;;;18.00;16.90;;;29.10;90.70;;;;;;5091740;28;20809;-67
2021/07/25 10:20:51;;;;;;;15.87;14.97;;;29.40;89.00;;;;;;5091829;28;20442;-67
2021/07/25 10:23:25;;;;;;;16.40;15.70;;;29.40;83.30;;;;;;5091784;28;20478;-67
2021/07/25 10:25:55;;;;;;;15.97;15.27;;;29.10;78.80;;;;;;5091902;28;20465;-68
2021/07/25 10:28:23;;;;;;;16.53;15.60;;;29.00;78.60;;;;;;5091733;28;20438;-67
2021/07/25 10:30:50;;;;;;;17.20;16.30;;;28.80;73.10;;;;;;5091791;28;20469;-68
2021/07/25 10:33:18;;;;;;;16.03;15.43;;;28.40;76.10;;;;;;5091606;28;20477;-67
2021/07/25 10:35:46;;;;;;;16.90;16.20;;;28.40;76.80;;;;;;5091536;28;20489;-68
2021/07/25 10:38:14;;;;;;;17.50;16.70;;;28.40;77.00;;;;;;5091552;28;20445;-67
2021/07/25 10:40:41;;;;;;;17.43;16.80;;;28.40;75.80;;;;;;5091745;28;20550;-67
2021/07/25 10:43:08;;;;;;;17.50;16.70;;;28.50;76.60;;;;;;5091358;28;20447;-67
2021/07/25 10:45:35;;;;;;;16.60;16.00;;;28.80;76.00;;;;;;5091287;28;20497;-67
2021/07/25 10:48:15;;;;;;;17.10;16.40;;;28.70;74.90;;;;;;5091018;28;20453;-67
2021/07/25 10:50:43;;;;;;;17.60;16.80;;;28.70;77.00;;;;;;5091489;28;20442;-67
2021/07/25 10:53:22;;;;;;;17.40;16.60;;;28.90;76.90;;;;;;5091443;28;20446;-67
2021/07/25 10:55:52;;;;;;;17.30;16.50;;;29.00;75.40;;;;;;5091366;28;20554;-67
2021/07/25 10:58:21;;;;;;;16.63;15.93;;;29.00;73.60;;;;;;5091301;28;20974;-68
2021/07/25 11:00:53;;;;;;;16.43;15.83;;;28.90;71.30;;;;;;5091473;28;20447;-68
2021/07/25 11:03:41;;;;;;;18.10;17.27;;;28.70;69.10;;;;;;5091296;28;20446;-67
2021/07/25 11:06:20;;;;;;;16.40;15.80;;;28.70;67.30;;;;;;5091113;28;20995;-67
2021/07/25 11:08:51;;;;;;;16.33;15.73;;;28.80;67.20;;;;;;5091066;28;20952;-67
2021/07/25 11:11:51;;;;;;;16.17;15.67;;;29.00;66.00;;;;;;5091174;28;20917;-67
2021/07/25 11:14:57;;;;;;;16.70;16.00;;;29.30;63.90;;;;;;5091307;28;20447;-68
2021/07/25 11:17:52;;;;;;;16.70;16.10;;;29.50;63.50;;;;;;5091019;28;20461;-68
2021/07/25 11:20:38;;;;;;;16.57;15.97;;;29.70;64.70;;;;;;5091236;28;20438;-67
2021/07/25 11:23:06;;;;;;;18.00;17.20;;;29.50;63.50;;;;;;5090911;28;20865;-68
2021/07/25 11:25:36;;;;;;;18.63;17.83;;;29.20;66.80;;;;;;5090900;28;20465;-67
2021/07/25 11:28:04;;;;;;;17.57;16.87;;;29.00;68.10;;;;;;5091504;28;20434;-67
2021/07/25 11:31:05;;;;;;;17.83;17.13;;;29.40;67.10;;;;;;5091008;28;20438;-68
2021/07/25 11:33:54;;;;;;;17.93;17.30;;;30.20;66.30;;;;;;5091111;28;20469;-68
2021/07/25 11:36:23;;;;;;;17.37;16.77;;;31.20;62.00;;;;;;5090536;28;20510;-67
2021/07/25 11:38:56;;;;;;;18.90;18.20;;;31.90;55.90;;;;;;5091146;28;20952;-68
2021/07/25 11:41:26;;;;;;;17.48;16.92;;;32.70;56.40;;;;;;5091125;28;20242;-68
2021/07/25 11:43:59;;;;;;;18.23;17.60;;;34.10;51.10;;;;;;5091057;28;20286;-68
2021/07/25 11:46:28;;;;;;;19.40;18.60;;;35.60;47.50;;;;;;5090631;28;20293;-68
2021/07/25 11:49:20;;;;;;;19.70;19.00;;;37.60;43.10;;;;;;5091051;28;20200;-68
2021/07/25 11:51:56;;;;;;;18.88;18.17;;;40.40;39.30;;;;;;5090831;28;20218;-68
2021/07/25 11:54:25;;;;;;;19.10;18.50;;;42.30;34.70;;;;;;5090802;28;20203;-67
2021/07/25 11:56:59;;;;;;;18.73;18.13;;;43.90;31.90;;;;;;5090578;28;20584;-68
2021/07/25 11:59:26;;;;;;;18.80;18.10;;;45.40;30.00;;;;;;5092847;28;20200;-68
2021/07/25 12:01:53;;;;;;;19.40;18.75;;;46.40;28.00;;;;;;5094457;28;20211;-68
2021/07/25 12:04:25;;;;;;;19.58;18.88;;;47.90;27.00;;;;;;5094550;28;20571;-67
2021/07/25 12:07:12;;;;;;;20.33;19.63;;;48.40;25.80;;;;;;5094016;28;20220;-68
2021/07/25 12:09:40;;;;;;;18.75;18.05;;;48.30;25.70;;;;;;5094476;28;20231;-69
2021/07/25 12:12:14;;;;;;;19.38;18.73;;;48.60;25.40;;;;;;5094265;28;20667;-69
2021/07/25 12:14:43;;;;;;;18.58;17.98;;;49.90;25.10;;;;;;5094205;28;20308;-69
2021/07/25 12:17:10;;;;;;;19.67;19.00;;;50.30;24.70;;;;;;5093777;28;20196;-69
2021/07/25 12:19:39;;;;;;;19.92;19.30;;;51.40;24.00;;;;;;5094176;28;20211;-66
2021/07/25 12:22:15;;;;;;;18.77;17.98;;;52.10;23.40;;;;;;5094058;28;20203;-66
2021/07/25 12:24:43;;;;;;;17.83;17.27;;;50.00;22.80;;;;;;5094411;28;20677;-66
2021/07/25 12:27:29;;;;;;;19.42;18.73;;;49.50;24.00;;;;;;5093857;28;20199;-66
2021/07/25 12:30:25;;;;;;;18.98;18.38;;;51.40;23.30;;;;;;5094252;28;20200;-66
2021/07/25 12:32:52;;;;;;;19.35;18.65;;;52.80;22.50;;;;;;5093718;28;20547;-66
2021/07/25 12:35:21;;;;;;;19.83;19.02;;;53.50;21.70;;;;;;5093589;28;20223;-66
2021/07/25 12:37:50;;;;;;;19.63;19.02;;;54.00;21.40;;;;;;5093941;28;20200;-67